createdAt,value
2023-05-07T00:03:35.464Z,100982.90
2023-05-07T00:06:04.835Z,100986.73
2023-05-07T00:08:36.305Z,100988.66
2023-05-07T00:11:04.625Z,100988.27
2023-05-07T00:13:33.373Z,100988.80
2023-05-07T00:16:05.160Z,100994.89
2023-05-07T00:18:33.904Z,101006.34
2023-05-07T00:21:04.757Z,101026.56
2023-05-07T00:23:33.402Z,101031.39
2023-05-07T00:26:01.389Z,101029.59
2023-05-07T00:28:29.498Z,101028.71
2023-05-07T00:30:57.721Z,101025.46
2023-05-07T00:33:25.880Z,101024.38
2023-05-07T00:35:54.737Z,101007.70
2023-05-07T00:38:23.088Z,101013.95
2023-05-07T00:40:51.131Z,101007.68
2023-05-07T00:43:21.679Z,100997.47
2023-05-07T00:45:50.072Z,101005.05
2023-05-07T00:48:19.896Z,101007.95
2023-05-07T00:50:49.374Z,101004.55
2023-05-07T00:53:18.580Z,100998.48
2023-05-07T00:55:47.414Z,100999.23
2023-05-07T00:58:16.156Z,100996.36
2023-05-07T01:00:45.116Z,100994.23
2023-05-07T01:03:15.014Z,100993.19
2023-05-07T01:05:47.179Z,100991.58
2023-05-07T01:08:17.840Z,100985.31
2023-05-07T01:10:47.722Z,100988.73
2023-05-07T01:13:17.247Z,100994.65
2023-05-07T01:15:45.506Z,100999.85
2023-05-07T01:18:15.088Z,101000.39
2023-05-07T01:20:43.806Z,100997.20
2023-05-07T01:23:13.646Z,100997.77
2023-05-07T01:25:43.074Z,100994.94
2023-05-07T01:28:12.111Z,100987.77
2023-05-07T01:30:46.246Z,100984.39
2023-05-07T01:33:19.944Z,100981.16
2023-05-07T01:35:54.656Z,100981.38
2023-05-07T01:38:24.667Z,100992.01
2023-05-07T01:40:53.862Z,100998.68
2023-05-07T01:43:23.035Z,101005.33
2023-05-07T01:45:51.264Z,101002.88
2023-05-07T01:48:21.079Z,100999.33
2023-05-07T01:50:50.546Z,100995.77
2023-05-07T01:53:18.672Z,100989.50
2023-05-07T01:55:46.893Z,100981.27
2023-05-07T01:58:17.015Z,100973.95
2023-05-07T02:00:45.199Z,100970.01
2023-05-07T02:03:16.603Z,100963.21
2023-05-07T02:05:45.612Z,100960.52
2023-05-07T02:08:14.880Z,100947.98
2023-05-07T02:10:43.372Z,100932.08
2023-05-07T02:13:12.196Z,100922.80
2023-05-07T02:15:41.424Z,100939.33
2023-05-07T02:18:09.710Z,100974.80
2023-05-07T02:20:38.157Z,100987.69
2023-05-07T02:23:07.245Z,100971.73
2023-05-07T02:25:36.423Z,100969.05
2023-05-07T02:28:05.492Z,100970.13
2023-05-07T02:30:33.974Z,100964.75
2023-05-07T02:33:02.222Z,100969.22
2023-05-07T02:35:31.306Z,100973.00
2023-05-07T02:37:59.831Z,100968.73
2023-05-07T02:40:28.640Z,100961.59
2023-05-07T02:42:56.937Z,100962.48
2023-05-07T02:45:25.702Z,100953.02
2023-05-07T02:47:53.962Z,100946.61
2023-05-07T02:50:23.145Z,100955.05
2023-05-07T02:52:51.175Z,100966.16
2023-05-07T02:55:19.832Z,100970.82
2023-05-07T02:57:48.622Z,100970.65
2023-05-07T03:00:19.382Z,100972.44
2023-05-07T03:02:48.204Z,100966.14
2023-05-07T03:05:17.611Z,100958.23
2023-05-07T03:07:46.266Z,100955.92
2023-05-07T03:10:14.441Z,100968.29
2023-05-07T03:12:43.095Z,100970.59
2023-05-07T03:15:12.029Z,100945.84
2023-05-07T03:17:40.297Z,100933.71
2023-05-07T03:20:11.116Z,100919.79
2023-05-07T03:22:40.529Z,100905.70
2023-05-07T03:25:10.812Z,100919.52
2023-05-07T03:27:40.149Z,100951.79
2023-05-07T03:30:10.544Z,100977.69
2023-05-07T03:32:39.474Z,100980.88
2023-05-07T03:35:09.196Z,100979.92
2023-05-07T03:37:39.746Z,100989.20
2023-05-07T03:40:12.341Z,100992.22
2023-05-07T03:42:40.928Z,100980.00
2023-05-07T03:45:10.643Z,100961.89
2023-05-07T03:47:39.207Z,100945.55
2023-05-07T03:50:08.336Z,100930.35
2023-05-07T03:52:37.199Z,100930.02
2023-05-07T03:55:07.030Z,100944.90
2023-05-07T03:57:35.372Z,100948.48
2023-05-07T04:00:04.593Z,100950.64
2023-05-07T04:02:34.548Z,100964.27
2023-05-07T04:05:03.546Z,100963.70
2023-05-07T04:07:32.901Z,100951.31
2023-05-07T04:10:02.636Z,100936.27
2023-05-07T04:12:31.202Z,100929.27
2023-05-07T04:14:59.317Z,100947.05
2023-05-07T04:17:27.574Z,100967.13
2023-05-07T04:19:55.831Z,100965.69
2023-05-07T04:22:24.801Z,100954.23
2023-05-07T04:24:53.002Z,100943.32
2023-05-07T04:27:22.596Z,100936.15
2023-05-07T04:29:50.885Z,100919.71
2023-05-07T04:32:19.411Z,100927.98
2023-05-07T04:34:49.471Z,100967.05
2023-05-07T04:37:18.928Z,101021.48
2023-05-07T04:39:47.360Z,101037.73
2023-05-07T04:42:17.609Z,101031.42
2023-05-07T04:44:46.707Z,101041.25
2023-05-07T04:47:15.968Z,101046.43
2023-05-07T04:49:45.672Z,101045.52
2023-05-07T04:52:14.355Z,101054.44
2023-05-07T04:54:42.588Z,101059.79
2023-05-07T04:57:11.123Z,101076.79
2023-05-07T04:59:41.455Z,101088.95
2023-05-07T05:02:11.269Z,101092.71
2023-05-07T05:04:39.695Z,101098.08
2023-05-07T05:07:10.000Z,101111.88
2023-05-07T05:09:39.016Z,101120.66
2023-05-07T05:12:07.621Z,101124.42
2023-05-07T05:14:37.069Z,101123.73
2023-05-07T05:17:06.184Z,101134.87
2023-05-07T05:19:35.302Z,101142.42
2023-05-07T05:22:06.294Z,101147.81
2023-05-07T05:24:35.768Z,101159.11
2023-05-07T05:27:04.544Z,101168.95
2023-05-07T05:29:33.072Z,101185.96
2023-05-07T05:32:02.901Z,101190.60
2023-05-07T05:34:31.572Z,101198.29
2023-05-07T05:37:00.817Z,101201.34
2023-05-07T05:39:28.998Z,101198.98
2023-05-07T05:41:57.950Z,101188.23
2023-05-07T05:44:27.424Z,101175.48
2023-05-07T05:46:56.393Z,101160.45
2023-05-07T05:49:25.080Z,101165.51
2023-05-07T05:51:54.021Z,101168.56
2023-05-07T05:54:22.782Z,101171.98
2023-05-07T05:56:51.183Z,101176.98
2023-05-07T05:59:20.048Z,101177.69
2023-05-07T06:01:48.337Z,101169.80
2023-05-07T06:04:17.391Z,101157.45
2023-05-07T06:06:47.302Z,101151.88
2023-05-07T06:09:17.454Z,101151.35
2023-05-07T06:11:47.455Z,101132.70
2023-05-07T06:14:16.194Z,101134.37
2023-05-07T06:16:45.367Z,101139.40
2023-05-07T06:19:14.607Z,101141.92
2023-05-07T06:21:43.542Z,101135.83
2023-05-07T06:24:12.075Z,101140.50
2023-05-07T06:26:41.270Z,101136.38
2023-05-07T06:29:09.422Z,101125.98
2023-05-07T06:31:38.305Z,101137.25
2023-05-07T06:34:06.951Z,101148.54
2023-05-07T06:36:36.261Z,101153.90
2023-05-07T06:39:05.134Z,101156.59
2023-05-07T06:41:34.501Z,101158.73
2023-05-07T06:44:04.759Z,101147.63
2023-05-07T06:46:33.391Z,101130.30
2023-05-07T06:49:01.946Z,101145.23
2023-05-07T06:51:30.588Z,101141.46
2023-05-07T06:53:58.769Z,101106.36
2023-05-07T06:56:27.567Z,101094.13
2023-05-07T06:58:55.696Z,101093.13
2023-05-07T07:01:25.280Z,101090.58
2023-05-07T07:03:54.150Z,101105.50
2023-05-07T07:06:22.753Z,101146.30
2023-05-07T07:08:51.517Z,101172.98
2023-05-07T07:11:19.978Z,101196.75
2023-05-07T07:13:48.613Z,101199.09
2023-05-07T07:16:18.296Z,101177.98
2023-05-07T07:18:46.960Z,101172.42
2023-05-07T07:21:15.304Z,101164.02
2023-05-07T07:23:43.891Z,101134.90
2023-05-07T07:26:12.470Z,101131.16
2023-05-07T07:28:48.216Z,101170.14
2023-05-07T07:31:16.712Z,101209.83
2023-05-07T07:33:45.430Z,101231.45
2023-05-07T07:36:13.872Z,101237.17
2023-05-07T07:38:42.386Z,101246.64
2023-05-07T07:41:10.437Z,101258.81
2023-05-07T07:43:39.029Z,101261.84
2023-05-07T07:46:07.798Z,101254.16
2023-05-07T07:48:36.884Z,101257.55
2023-05-07T07:51:05.631Z,101264.70
2023-05-07T07:53:35.339Z,101262.73
2023-05-07T07:56:05.843Z,101249.51
2023-05-07T07:58:35.271Z,101255.58
2023-05-07T08:01:04.039Z,101264.70
2023-05-07T08:03:32.878Z,101265.94
2023-05-07T08:06:01.205Z,101258.42
2023-05-07T08:08:31.838Z,101261.45
2023-05-07T08:11:01.019Z,101266.81
2023-05-07T08:13:29.384Z,101269.86
2023-05-07T08:15:58.347Z,101268.61
2023-05-07T08:18:28.253Z,101265.04
2023-05-07T08:20:58.095Z,101255.91
2023-05-07T08:23:31.479Z,101247.85
2023-05-07T08:26:00.416Z,101242.67
2023-05-07T08:28:28.738Z,101253.56
2023-05-07T08:30:56.899Z,101255.55
2023-05-07T08:33:25.087Z,101261.61
2023-05-07T08:35:53.890Z,101275.20
2023-05-07T08:38:21.890Z,101283.27
2023-05-07T08:40:51.358Z,101292.21
2023-05-07T08:43:20.786Z,101295.45
2023-05-07T08:45:54.628Z,101288.83
2023-05-07T08:48:26.732Z,101283.45
2023-05-07T08:50:55.267Z,101287.20
2023-05-07T08:53:24.928Z,101297.92
2023-05-07T08:55:54.640Z,101290.95
2023-05-07T08:58:23.405Z,101290.20
2023-05-07T09:00:54.001Z,101291.42
2023-05-07T09:03:23.958Z,101301.23
2023-05-07T09:05:52.679Z,101317.31
2023-05-07T09:08:28.355Z,101330.00
2023-05-07T09:10:59.136Z,101332.13
2023-05-07T09:13:29.330Z,101329.60
2023-05-07T09:15:58.106Z,101322.96
2023-05-07T09:18:30.210Z,101320.05
2023-05-07T09:20:58.771Z,101318.04
2023-05-07T09:23:28.016Z,101322.13
2023-05-07T09:26:02.543Z,101331.57
2023-05-07T09:28:30.793Z,101333.83
2023-05-07T09:30:59.696Z,101335.56
2023-05-07T09:33:29.775Z,101341.98
2023-05-07T09:35:58.293Z,101346.06
2023-05-07T09:38:26.945Z,101343.30
2023-05-07T09:41:07.870Z,101345.90
2023-05-07T09:43:38.247Z,101348.60
2023-05-07T09:46:16.817Z,101352.23
2023-05-07T09:48:46.977Z,101357.09
2023-05-07T09:51:52.280Z,101361.27
2023-05-07T09:54:20.606Z,101363.53
2023-05-07T09:56:54.528Z,101361.97
2023-05-07T09:59:23.794Z,101359.33
2023-05-07T10:01:57.868Z,101353.69
2023-05-07T10:04:27.231Z,101359.52
2023-05-07T10:06:55.905Z,101363.90
2023-05-07T10:09:25.013Z,101372.64
2023-05-07T10:11:53.681Z,101376.12
2023-05-07T10:14:22.723Z,101378.53
2023-05-07T10:16:54.792Z,101373.85
2023-05-07T10:19:23.887Z,101386.70
2023-05-07T10:21:57.826Z,101386.60
2023-05-07T10:24:31.913Z,101387.11
2023-05-07T10:27:01.955Z,101387.98
2023-05-07T10:29:55.341Z,101384.96
2023-05-07T10:32:55.158Z,101382.04
2023-05-07T10:35:30.930Z,101380.70
2023-05-07T10:37:59.588Z,101378.35
2023-05-07T10:40:27.864Z,101383.17
2023-05-07T10:43:00.700Z,101381.84
2023-05-07T10:45:30.045Z,101373.64
2023-05-07T10:50:49.139Z,101367.61
2023-05-07T10:53:25.366Z,101377.36
2023-05-07T10:56:19.255Z,101371.88
2023-05-07T10:58:47.314Z,101377.07
2023-05-07T11:01:15.573Z,101375.13
2023-05-07T11:04:14.075Z,101371.59
2023-05-07T11:06:42.481Z,101373.12
2023-05-07T11:09:11.457Z,101366.85
2023-05-07T11:11:48.198Z,101358.79
2023-05-07T11:14:42.409Z,101354.66
2023-05-07T11:17:13.875Z,101349.85
2023-05-07T11:19:56.957Z,101346.54
2023-05-07T11:22:38.784Z,101344.25
2023-05-07T11:25:07.969Z,101335.43
2023-05-07T11:27:37.047Z,101337.56
2023-05-07T11:30:05.751Z,101332.96
2023-05-07T11:32:34.975Z,101336.84
2023-05-07T11:35:03.873Z,101341.01
2023-05-07T11:37:31.999Z,101339.79
2023-05-07T11:40:07.877Z,101342.70
2023-05-07T11:42:39.165Z,101342.58
2023-05-07T11:45:08.698Z,101339.90
2023-05-07T11:47:36.814Z,101338.45
2023-05-07T11:50:09.511Z,101339.34
2023-05-07T11:52:37.789Z,101339.13
2023-05-07T11:55:09.425Z,101337.76
2023-05-07T11:57:37.673Z,101339.62
2023-05-07T12:00:08.529Z,101341.09
2023-05-07T12:02:36.773Z,101338.59
2023-05-07T12:05:06.283Z,101343.65
2023-05-07T12:07:35.649Z,101340.77
2023-05-07T12:10:08.331Z,101341.95
2023-05-07T12:12:40.378Z,101336.23
2023-05-07T12:15:10.310Z,101343.41
2023-05-07T12:17:39.337Z,101346.80
2023-05-07T12:20:10.703Z,101345.61
2023-05-07T12:22:39.249Z,101345.20
2023-05-07T12:25:08.388Z,101343.58
2023-05-07T12:27:40.315Z,101344.81
2023-05-07T12:30:11.874Z,101341.29
2023-05-07T12:32:40.765Z,101341.85
2023-05-07T12:35:11.408Z,101338.40
2023-05-07T12:37:39.717Z,101344.68
2023-05-07T12:40:11.936Z,101339.41
2023-05-07T12:42:41.800Z,101340.16
2023-05-07T12:45:15.026Z,101341.30
2023-05-07T12:47:47.766Z,101339.20
2023-05-07T12:50:17.446Z,101340.08
2023-05-07T12:52:49.034Z,101336.70
2023-05-07T12:55:18.629Z,101337.38
2023-05-07T12:57:49.824Z,101337.88
2023-05-07T13:00:19.440Z,101339.49
2023-05-07T13:02:48.333Z,101345.98
2023-05-07T13:05:16.520Z,101355.40
2023-05-07T13:07:58.251Z,101361.55
2023-05-07T13:10:29.349Z,101361.67
2023-05-07T13:12:58.386Z,101357.04
2023-05-07T13:15:26.917Z,101348.92
2023-05-07T13:17:55.187Z,101342.38
2023-05-07T13:20:23.604Z,101338.59
2023-05-07T13:22:52.212Z,101343.09
2023-05-07T13:25:20.377Z,101342.64
2023-05-07T13:27:56.493Z,101355.70
2023-05-07T13:30:31.725Z,101359.63
2023-05-07T13:33:00.585Z,101361.55
2023-05-07T13:35:29.290Z,101354.77
2023-05-07T13:37:58.527Z,101351.15
2023-05-07T13:40:26.888Z,101341.55
2023-05-07T13:42:57.972Z,101333.64
2023-05-07T13:45:26.728Z,101342.23
2023-05-07T13:47:55.459Z,101345.55
2023-05-07T13:50:23.872Z,101356.16
2023-05-07T13:52:52.138Z,101366.52
2023-05-07T13:55:21.787Z,101373.66
2023-05-07T13:57:59.420Z,101373.86
2023-05-07T14:00:28.755Z,101377.41
2023-05-07T14:02:57.786Z,101366.76
2023-05-07T14:05:26.394Z,101357.69
2023-05-07T14:07:56.682Z,101357.73
2023-05-07T14:10:25.843Z,101351.00
2023-05-07T14:12:54.444Z,101350.13
2023-05-07T14:15:22.685Z,101341.81
2023-05-07T14:17:51.169Z,101339.59
2023-05-07T14:20:19.288Z,101335.35
2023-05-07T14:22:47.369Z,101331.05
2023-05-07T14:25:15.787Z,101334.59
2023-05-07T14:27:44.472Z,101339.65
2023-05-07T14:30:12.805Z,101348.04
2023-05-07T14:32:42.173Z,101349.48
2023-05-07T14:35:11.082Z,101350.19
2023-05-07T14:37:39.530Z,101356.27
2023-05-07T14:40:08.476Z,101357.13
2023-05-07T14:42:36.748Z,101350.77
2023-05-07T14:45:05.380Z,101338.00
2023-05-07T14:47:33.528Z,101336.66
2023-05-07T14:50:02.325Z,101346.76
2023-05-07T14:52:30.572Z,101344.77
2023-05-07T14:54:58.766Z,101335.96
2023-05-07T14:57:27.931Z,101343.06
2023-05-07T14:59:56.309Z,101349.98
2023-05-07T15:02:24.572Z,101342.48
2023-05-07T15:04:53.580Z,101333.69
2023-05-07T15:07:22.464Z,101326.88
2023-05-07T15:09:51.050Z,101320.64
2023-05-07T15:12:20.771Z,101321.39
2023-05-07T15:14:49.083Z,101329.20
2023-05-07T15:17:17.244Z,101334.62
2023-05-07T15:19:45.968Z,101343.11
2023-05-07T15:22:15.561Z,101356.75
2023-05-07T15:24:43.769Z,101388.23
2023-05-07T15:27:12.391Z,101413.20
2023-05-07T15:29:40.450Z,101422.95
2023-05-07T15:32:09.861Z,101421.83
2023-05-07T15:34:38.780Z,101413.90
2023-05-07T15:37:06.933Z,101397.77
2023-05-07T15:39:35.204Z,101386.46
2023-05-07T15:42:06.692Z,101388.95
2023-05-07T15:44:35.929Z,101383.13
2023-05-07T15:47:04.793Z,101373.22
2023-05-07T15:49:33.764Z,101378.45
2023-05-07T15:52:02.416Z,101399.29
2023-05-07T15:54:30.828Z,101425.48
2023-05-07T15:56:59.298Z,101428.83
2023-05-07T15:59:28.117Z,101418.59
2023-05-07T16:01:56.652Z,101419.27
2023-05-07T16:04:26.923Z,101428.96
2023-05-07T16:06:55.468Z,101424.41
2023-05-07T16:09:23.599Z,101408.34
2023-05-07T16:11:54.041Z,101397.89
2023-05-07T16:14:22.832Z,101405.75
2023-05-07T16:16:52.883Z,101402.78
2023-05-07T16:19:22.807Z,101392.08
2023-05-07T16:21:51.733Z,101382.34
2023-05-07T16:24:20.491Z,101375.36
2023-05-07T16:26:49.060Z,101366.20
2023-05-07T16:29:17.139Z,101377.70
2023-05-07T16:31:45.365Z,101400.77
2023-05-07T16:34:14.212Z,101422.58
2023-05-07T16:36:43.208Z,101428.14
2023-05-07T16:39:11.842Z,101416.60
2023-05-07T16:41:40.618Z,101409.28
2023-05-07T16:44:09.202Z,101403.71
2023-05-07T16:46:38.150Z,101381.36
2023-05-07T16:49:07.208Z,101367.49
2023-05-07T16:51:35.803Z,101365.15
2023-05-07T16:54:04.150Z,101370.95
2023-05-07T16:56:32.846Z,101374.50
2023-05-07T16:59:02.229Z,101383.52
2023-05-07T17:01:30.463Z,101387.46
2023-05-07T17:03:59.348Z,101385.64
2023-05-07T17:06:28.103Z,101383.98
2023-05-07T17:08:56.979Z,101385.23
2023-05-07T17:11:25.361Z,101395.85
2023-05-07T17:13:53.832Z,101400.63
2023-05-07T17:16:22.689Z,101396.50
2023-05-07T17:18:51.326Z,101388.32
2023-05-07T17:21:20.530Z,101384.70
2023-05-07T17:23:49.511Z,101383.02
2023-05-07T17:26:19.111Z,101389.04
2023-05-07T17:28:48.468Z,101398.03
2023-05-07T17:31:17.080Z,101399.62
2023-05-07T17:33:46.810Z,101399.30
2023-05-07T17:36:16.228Z,101401.16
2023-05-07T17:38:44.999Z,101399.44
2023-05-07T17:41:14.409Z,101399.83
2023-05-07T17:43:42.706Z,101390.89
2023-05-07T17:46:10.915Z,101387.35
2023-05-07T17:48:40.192Z,101382.70
2023-05-07T17:51:10.092Z,101386.95
2023-05-07T17:53:39.738Z,101387.63
2023-05-07T17:56:08.493Z,101384.55
2023-05-07T17:58:42.753Z,101381.09
2023-05-07T18:01:23.026Z,101380.65
2023-05-07T18:03:51.956Z,101382.14
2023-05-07T18:06:20.667Z,101384.12
2023-05-07T18:08:49.969Z,101384.10
2023-05-07T18:11:19.824Z,101377.95
2023-05-07T18:13:48.321Z,101378.02
2023-05-07T18:16:16.478Z,101382.55
2023-05-07T18:18:44.765Z,101381.36
2023-05-07T18:21:13.332Z,101382.13
2023-05-07T18:23:42.248Z,101381.58
2023-05-07T18:26:10.821Z,101388.93
2023-05-07T18:28:38.840Z,101402.50
2023-05-07T18:31:07.767Z,101404.14
2023-05-07T18:33:36.116Z,101409.54
2023-05-07T18:36:04.393Z,101421.77
2023-05-07T18:38:33.270Z,101433.67
2023-05-07T18:41:05.242Z,101443.38
2023-05-07T18:43:34.365Z,101449.48
2023-05-07T18:46:02.550Z,101452.20
2023-05-07T18:48:32.385Z,101463.52
2023-05-07T18:51:01.424Z,101467.14
2023-05-07T18:53:29.504Z,101462.66
2023-05-07T18:55:58.109Z,101460.66
2023-05-07T18:58:26.444Z,101454.46
2023-05-07T19:00:55.517Z,101457.04
2023-05-07T19:03:23.643Z,101462.64
2023-05-07T19:05:52.760Z,101464.24
2023-05-07T19:08:20.833Z,101467.47
2023-05-07T19:10:48.878Z,101468.74
2023-05-07T19:13:17.526Z,101473.43
2023-05-07T19:15:46.417Z,101475.05
2023-05-07T19:18:14.533Z,101476.68
2023-05-07T19:20:43.104Z,101483.70
2023-05-07T19:23:11.252Z,101493.95
2023-05-07T19:25:39.555Z,101505.98
2023-05-07T19:28:07.642Z,101521.10
2023-05-07T19:30:38.923Z,101528.30
2023-05-07T19:33:07.923Z,101533.85
2023-05-07T19:35:36.740Z,101538.73
2023-05-07T19:38:05.023Z,101538.71
2023-05-07T19:40:33.906Z,101540.16
2023-05-07T19:43:03.928Z,101540.33
2023-05-07T19:45:31.981Z,101541.94
2023-05-07T19:48:00.957Z,101537.27
2023-05-07T19:50:29.148Z,101541.61
2023-05-07T19:52:57.189Z,101542.17
2023-05-07T19:55:25.806Z,101551.17
2023-05-07T19:57:54.084Z,101555.00
2023-05-07T20:00:22.549Z,101561.41
2023-05-07T20:02:52.127Z,101568.63
2023-05-07T20:05:20.931Z,101575.64
2023-05-07T20:07:49.153Z,101589.31
2023-05-07T20:10:17.941Z,101601.23
2023-05-07T20:12:46.543Z,101608.79
2023-05-07T20:15:14.688Z,101605.02
2023-05-07T20:17:43.124Z,101609.35
2023-05-07T20:20:12.043Z,101622.14
2023-05-07T20:22:40.330Z,101633.64
2023-05-07T20:25:10.425Z,101641.92
2023-05-07T20:27:38.499Z,101642.13
2023-05-07T20:30:08.769Z,101642.69
2023-05-07T20:32:37.402Z,101649.69
2023-05-07T20:35:06.037Z,101656.70
2023-05-07T20:37:34.424Z,101657.96
2023-05-07T20:40:03.463Z,101653.46
2023-05-07T20:42:31.552Z,101653.46
2023-05-07T20:45:02.159Z,101646.98
2023-05-07T20:47:33.225Z,101643.05
2023-05-07T20:50:01.600Z,101640.92
2023-05-07T20:52:30.226Z,101646.85
2023-05-07T20:54:58.888Z,101653.14
2023-05-07T20:57:27.058Z,101651.16
2023-05-07T20:59:55.263Z,101647.74
2023-05-07T21:02:23.716Z,101643.63
2023-05-07T21:04:52.549Z,101646.15
2023-05-07T21:07:20.746Z,101652.11
2023-05-07T21:09:49.395Z,101654.44
2023-05-07T21:12:17.485Z,101654.06
2023-05-07T21:14:45.731Z,101656.42
2023-05-07T21:17:13.875Z,101666.13
2023-05-07T21:19:42.215Z,101671.34
2023-05-07T21:22:10.551Z,101681.94
2023-05-07T21:24:39.327Z,101693.44
2023-05-07T21:27:07.589Z,101704.07
2023-05-07T21:29:36.200Z,101708.58
2023-05-07T21:32:06.571Z,101711.83
2023-05-07T21:34:36.025Z,101720.09
2023-05-07T21:37:10.651Z,101717.04
2023-05-07T21:39:59.476Z,101712.35
2023-05-07T21:42:27.838Z,101712.36
2023-05-07T21:44:56.172Z,101712.17
2023-05-07T21:47:24.714Z,101715.21
2023-05-07T21:49:52.904Z,101712.86
2023-05-07T21:52:21.030Z,101707.46
2023-05-07T21:54:52.748Z,101696.85
2023-05-07T21:57:21.237Z,101690.55
2023-05-07T21:59:49.274Z,101687.51
2023-05-07T22:02:17.822Z,101695.61
2023-05-07T22:04:45.959Z,101698.49
2023-05-07T22:07:14.142Z,101692.56
2023-05-07T22:09:42.287Z,101681.44
2023-05-07T22:12:10.953Z,101683.09
2023-05-07T22:14:39.680Z,101688.66
2023-05-07T22:17:08.038Z,101696.05
2023-05-07T22:19:36.343Z,101695.33
2023-05-07T22:22:04.557Z,101699.84
2023-05-07T22:24:33.355Z,101701.45
2023-05-07T22:27:01.477Z,101696.60
2023-05-07T22:29:29.556Z,101693.17
2023-05-07T22:31:57.815Z,101689.96
2023-05-07T22:34:25.919Z,101688.38
2023-05-07T22:36:54.158Z,101684.25
2023-05-07T22:39:22.477Z,101677.79
2023-05-07T22:41:54.162Z,101673.86
2023-05-07T22:44:22.394Z,101673.67
2023-05-07T22:46:50.614Z,101678.02
2023-05-07T22:49:18.973Z,101681.27
2023-05-07T22:51:50.500Z,101683.23
2023-05-07T22:54:18.831Z,101681.81
2023-05-07T22:56:47.565Z,101684.67
2023-05-07T22:59:16.913Z,101683.97
2023-05-07T23:01:47.442Z,101683.44
2023-05-07T23:04:15.870Z,101684.33
2023-05-07T23:06:44.089Z,101688.29
2023-05-07T23:09:12.407Z,101689.55
2023-05-07T23:11:40.853Z,101696.77
2023-05-07T23:14:09.561Z,101700.54
2023-05-07T23:16:37.790Z,101706.30
2023-05-07T23:19:05.932Z,101706.33
2023-05-07T23:21:34.163Z,101702.92
2023-05-07T23:24:02.428Z,101701.14
2023-05-07T23:26:31.163Z,101697.92
2023-05-07T23:28:59.902Z,101697.02
2023-05-07T23:31:28.659Z,101705.11
2023-05-07T23:33:56.854Z,101710.34
2023-05-07T23:36:25.603Z,101709.61
2023-05-07T23:38:54.258Z,101712.67
2023-05-07T23:41:22.549Z,101713.57
2023-05-07T23:43:50.716Z,101707.67
2023-05-07T23:46:18.919Z,101707.87
2023-05-07T23:48:47.058Z,101704.65
2023-05-07T23:51:15.304Z,101700.88
2023-05-07T23:53:43.393Z,101705.74
2023-05-07T23:56:11.573Z,101709.89
2023-05-07T23:58:39.880Z,101710.80
